KENW/ENW METAR and TAF weather

Enter ICAO airport designator
Station Type Date Time Source
KENW METAR 2022/01/29 01:53 UTC NOAA

KENW 290153Z 28004KT 10SM OVC110 M11/M18 A3031 RMK AO2 SLP281 T11111178


Station Type Date Time Source
KENW Decoded METAR 2022/01/29 01:53 UTC NOAA

KENOSHA REGIONAL AIRPORT, WI, United States (KENW) 42-36N 087-56W 219M
Jan 28, 2022 - 08:53 PM EST / 2022.01.29 0153 UTC
Wind: from the W (280 degrees) at 5 MPH (4 KT):0
Visibility: 10 mile(s):0
Sky conditions: overcast
Temperature: 12.0 F (-11.1 C)
Windchill: 3 F (-16 C):1
Dew Point: -0.0 F (-17.8 C)
Relative Humidity: 57%
Pressure (altimeter): 30.31 in. Hg (1026 hPa)
ob: KENW 290153Z 28004KT 10SM OVC110 M11/M18 A3031 RMK AO2 SLP281 T11111178
cycle: 2

Station Type Date Time Source
KENW TAF 2022/01/28 22:09 UTC NOAA

TAF
AMD KENW 282207Z 2822/2918 30007KT P6SM SCT200
FM290000 29005KT P6SM SCT200
FM291000 24004KT P6SM FEW040 BKN100
FM291600 21007KT P6SM SCT035 BKN080

Example: see airport list